Williams, OR

6:04 PM PST on February 27, 2015 (GMT -0800)
Siskiyou County | Change Station
CLOSE
Current Station
Airport
Location: Montague,
Elevation: 2648 ft
Nearby Weather Stations

Elev 2648 ft 41.78 °N, 122.47 °W | Updated 11 minutes ago

Overcast
Overcast
44 °F
Feels Like 41 °F
N
6
Wind Variable Wind from NNE

Today
High -- | Low -- °F
--% Chance of Precip.
Yesterday
High -- | Low -- °F
Precip. -- in
6:51 AM 6:00 PM
Waxing Gibbous, 73% visible
Pressure 29.75 in
Visibility 10.0 miles
Clouds Few 3700 ft
Mostly Cloudy 4600 ft
Overcast 6000 ft
Windchill 41 °F
Dew Point 36 °F
Humidity 73%
Rainfall 0.02 in
Snow Depth Not available.
UV 0 out of 12
Pollen 1.30 out of 12
Air Quality Not available.
Flu Activity Not available.
METAR KSIY 280153Z AUTO 03005KT 10SM -RA FEW037 BKN046 OVC060 07/02 A2971 RMK AO2 RAB0055E08B31 SLP075 P0001 T00670022

More Conditions Fewer Conditions

Pressure 29.75 in
Visibility 10.0 miles
Clouds Few 3700 ft
Mostly Cloudy 4600 ft
Overcast 6000 ft
Windchill 41 °F
Dew Point 36 °F
Humidity 73%
Rainfall 0.02 in
Snow Depth Not available.
UV 0 out of 12
Pollen 1.30 out of 12
Air Quality Not available.
Flu Activity Not available.
METAR KSIY 280153Z AUTO 03005KT 10SM -RA FEW037 BKN046 OVC060 07/02 A2971 RMK AO2 RAB0055E08B31 SLP075 P0001 T00670022

More Conditions Fewer Conditions

10-Day Weather Forecast

Almanac

Astronomy

Feb. 27, 2015 Rise Set
Actual Time
Civil Twilight
Nautical Twilight
Astronomical Twilight
Moon
Length of Visible Light
Length of Day
Tomorrow will be .
, % of the Moon is Illuminated

Today's Extremes

State Highs State Lows

Community

WunderPhotos

Upload Photos

1,800,930 photos uploaded!

WunderBlogs® & News

Nearby

Air Quality

  Air Quality AQ Index Pollutant
Not available.

Snow Depth

Station Depth Elevation

Earthquake Activity

City Distance Mag. Time & Date
Minimum magnitude displayed is 2.5.

Coastal Water Temperatures

Place Temperature

Nearby Weather Stations